createdAt,value
2019-01-30T00:00:09.493Z,29.09
2019-01-30T00:00:49.497Z,29.11
2019-01-30T00:01:28.212Z,29.09
2019-01-30T00:02:04.450Z,29.10
2019-01-30T00:02:40.627Z,29.10
2019-01-30T00:03:16.960Z,29.11
2019-01-30T00:03:53.216Z,29.10
2019-01-30T00:04:29.346Z,29.12
2019-01-30T00:05:05.539Z,29.12
2019-01-30T00:05:41.594Z,29.12
2019-01-30T00:06:17.728Z,29.12
2019-01-30T00:06:53.822Z,29.12
2019-01-30T00:07:30.007Z,29.07
2019-01-30T00:08:06.393Z,29.11
2019-01-30T00:08:42.532Z,29.15
2019-01-30T00:09:18.521Z,29.15
2019-01-30T00:09:54.695Z,29.14
2019-01-30T00:10:30.848Z,29.16
2019-01-30T00:11:07.086Z,29.18
2019-01-30T00:11:43.399Z,29.15
2019-01-30T00:12:19.490Z,29.19
2019-01-30T00:12:55.866Z,29.19
2019-01-30T00:13:32.133Z,29.19
2019-01-30T00:14:08.442Z,29.22
2019-01-30T00:14:44.778Z,29.22
2019-01-30T00:15:20.862Z,29.23
2019-01-30T00:15:57.204Z,29.24
2019-01-30T00:16:33.277Z,29.21
2019-01-30T00:17:09.499Z,29.27
2019-01-30T00:17:45.556Z,29.28
2019-01-30T00:18:21.610Z,29.28
2019-01-30T00:18:57.816Z,29.30
2019-01-30T00:19:33.872Z,29.32
2019-01-30T00:20:10.552Z,29.32
2019-01-30T00:20:46.670Z,29.33
2019-01-30T00:21:22.736Z,29.34
2019-01-30T00:21:58.718Z,29.34
2019-01-30T00:22:34.897Z,29.30
2019-01-30T00:23:10.961Z,29.37
2019-01-30T00:23:47.057Z,29.37
2019-01-30T00:24:23.095Z,29.31
2019-01-30T00:24:59.348Z,29.37
2019-01-30T00:25:35.551Z,29.38
2019-01-30T00:26:11.814Z,29.39
2019-01-30T00:26:47.934Z,29.40
2019-01-30T00:27:23.991Z,29.40
2019-01-30T00:28:00.213Z,29.39
2019-01-30T00:28:36.586Z,29.39
2019-01-30T00:29:12.910Z,29.40
2019-01-30T00:29:49.119Z,29.40
2019-01-30T00:30:25.430Z,29.37
2019-01-30T00:31:01.660Z,29.41
2019-01-30T00:31:37.931Z,29.41
2019-01-30T00:32:15.133Z,29.42
2019-01-30T00:32:51.353Z,29.43
2019-01-30T00:33:27.591Z,29.43
2019-01-30T00:34:03.688Z,29.43
2019-01-30T00:34:39.828Z,29.43
2019-01-30T00:35:16.146Z,29.38
2019-01-30T00:35:52.445Z,29.44
2019-01-30T00:36:28.642Z,29.40
2019-01-30T00:37:04.655Z,29.46
2019-01-30T00:37:40.983Z,29.47
2019-01-30T00:38:17.299Z,29.48
2019-01-30T00:38:53.388Z,29.45
2019-01-30T00:39:29.471Z,29.48
2019-01-30T00:40:06.413Z,29.49
2019-01-30T00:40:42.630Z,29.44
2019-01-30T00:41:18.851Z,29.44
2019-01-30T00:41:54.896Z,29.44
2019-01-30T00:42:31.072Z,29.44
2019-01-30T00:43:07.195Z,29.48
2019-01-30T00:43:43.301Z,29.49
2019-01-30T00:44:19.452Z,29.52
2019-01-30T00:44:56.074Z,29.52
2019-01-30T00:45:32.106Z,29.48
2019-01-30T00:46:08.265Z,29.55
2019-01-30T00:46:44.461Z,29.51
2019-01-30T00:47:20.787Z,29.55
2019-01-30T00:47:57.000Z,29.62
2019-01-30T00:48:33.247Z,29.65
2019-01-30T00:49:09.517Z,29.65
2019-01-30T00:49:45.699Z,29.67
2019-01-30T00:50:22.036Z,29.68
2019-01-30T00:50:58.077Z,29.71
2019-01-30T00:51:34.230Z,29.72
2019-01-30T00:52:10.328Z,29.75
2019-01-30T00:52:46.614Z,29.72
2019-01-30T00:53:22.696Z,29.78
2019-01-30T00:53:58.898Z,29.83
2019-01-30T00:54:35.103Z,29.83
2019-01-30T00:55:11.851Z,29.83
2019-01-30T00:55:47.913Z,29.83
2019-01-30T00:56:24.244Z,29.90
2019-01-30T00:57:00.618Z,29.88
2019-01-30T00:57:36.713Z,29.88
2019-01-30T00:58:13.023Z,29.92
2019-01-30T00:58:49.120Z,30.01
2019-01-30T00:59:25.210Z,30.01
2019-01-30T01:00:01.268Z,30.05
2019-01-30T01:00:37.397Z,30.08
2019-01-30T01:01:13.536Z,30.13
2019-01-30T01:01:49.717Z,30.13
2019-01-30T01:02:26.080Z,30.13
2019-01-30T01:03:02.089Z,30.16
2019-01-30T01:03:38.368Z,30.19
2019-01-30T01:04:14.611Z,30.29
2019-01-30T01:04:50.884Z,30.29
2019-01-30T01:05:27.087Z,30.31
2019-01-30T01:06:03.567Z,30.32
2019-01-30T01:06:40.227Z,30.39
2019-01-30T01:07:16.286Z,30.41
2019-01-30T01:07:52.541Z,30.41
2019-01-30T01:08:28.861Z,30.37
2019-01-30T01:09:08.387Z,30.45
2019-01-30T01:09:44.566Z,30.45
2019-01-30T01:10:21.019Z,30.44
2019-01-30T01:10:57.163Z,30.50
2019-01-30T01:11:33.327Z,30.54
2019-01-30T01:12:09.499Z,30.52
2019-01-30T01:12:45.911Z,30.53
2019-01-30T01:13:22.179Z,30.59
2019-01-30T01:13:58.224Z,30.59
2019-01-30T01:14:34.420Z,30.62
2019-01-30T01:15:13.014Z,30.62
2019-01-30T01:15:49.237Z,30.64
2019-01-30T01:16:25.535Z,30.64
2019-01-30T01:17:01.754Z,30.67
2019-01-30T01:17:38.167Z,30.67
2019-01-30T01:18:14.263Z,30.67
2019-01-30T01:18:50.540Z,30.68
2019-01-30T01:19:26.607Z,30.69
2019-01-30T01:20:02.920Z,30.72
2019-01-30T01:20:39.040Z,30.70
2019-01-30T01:21:15.040Z,30.73
2019-01-30T01:21:51.377Z,30.75
2019-01-30T01:22:27.499Z,30.76
2019-01-30T01:23:03.614Z,30.77
2019-01-30T01:23:39.771Z,30.78
2019-01-30T01:24:15.974Z,30.77
2019-01-30T01:24:52.069Z,30.78
2019-01-30T01:25:28.329Z,30.77
2019-01-30T01:26:04.492Z,30.76
2019-01-30T01:26:40.699Z,30.77
2019-01-30T01:27:16.822Z,30.77
2019-01-30T01:27:52.963Z,30.78
2019-01-30T01:28:29.235Z,30.79
2019-01-30T01:29:05.419Z,30.74
2019-01-30T01:29:41.687Z,30.76
2019-01-30T01:30:25.172Z,30.76
2019-01-30T01:30:58.158Z,30.76
2019-01-30T01:31:35.147Z,30.77
2019-01-30T01:32:11.367Z,30.77
2019-01-30T01:32:47.483Z,30.78
2019-01-30T01:33:25.298Z,30.77
2019-01-30T01:34:01.305Z,30.80
2019-01-30T01:34:37.551Z,30.80
2019-01-30T01:35:14.042Z,30.81
2019-01-30T01:35:50.243Z,30.81
2019-01-30T01:36:26.435Z,30.82
2019-01-30T01:37:02.498Z,30.80
2019-01-30T01:37:38.592Z,30.84
2019-01-30T01:38:14.690Z,30.84
2019-01-30T01:38:50.845Z,30.86
2019-01-30T01:39:27.036Z,30.87
2019-01-30T01:40:03.329Z,30.89
2019-01-30T01:40:39.492Z,30.89
2019-01-30T01:41:15.721Z,30.90
2019-01-30T01:41:51.926Z,30.91
2019-01-30T01:42:28.199Z,30.94
2019-01-30T01:43:04.502Z,30.95
2019-01-30T01:43:40.760Z,30.94
2019-01-30T01:44:16.857Z,30.95
2019-01-30T01:44:53.097Z,30.94
2019-01-30T01:45:29.169Z,30.95
2019-01-30T01:46:05.462Z,30.96
2019-01-30T01:46:41.627Z,30.97
2019-01-30T01:47:17.939Z,30.97
2019-01-30T01:47:54.169Z,30.97
2019-01-30T01:48:30.427Z,30.95
2019-01-30T01:49:06.429Z,30.99
2019-01-30T01:49:42.731Z,31.01
2019-01-30T01:50:20.888Z,31.01
2019-01-30T01:50:57.100Z,31.02
2019-01-30T01:51:33.277Z,31.03
2019-01-30T01:52:09.425Z,31.04
2019-01-30T01:52:45.662Z,31.05
2019-01-30T01:53:21.638Z,31.07
2019-01-30T01:53:57.816Z,31.08
2019-01-30T01:54:34.039Z,31.10
2019-01-30T01:55:10.693Z,31.12
2019-01-30T01:55:47.027Z,31.13
2019-01-30T01:56:23.118Z,31.14
2019-01-30T01:56:59.184Z,31.10
2019-01-30T01:57:35.177Z,31.13
2019-01-30T01:58:11.292Z,31.13
2019-01-30T01:58:47.420Z,31.15
2019-01-30T01:59:23.685Z,31.15
2019-01-30T01:59:59.887Z,31.14
2019-01-30T02:00:36.068Z,31.16
2019-01-30T02:01:12.254Z,31.18
2019-01-30T02:01:48.366Z,31.18
2019-01-30T02:02:24.403Z,31.15
2019-01-30T02:03:00.736Z,31.18
2019-01-30T02:03:36.986Z,31.18
2019-01-30T02:04:13.105Z,31.19
2019-01-30T02:04:49.390Z,31.21
2019-01-30T02:05:25.777Z,31.21
2019-01-30T02:06:01.798Z,31.22
2019-01-30T02:06:38.078Z,31.23
2019-01-30T02:07:14.295Z,31.23
2019-01-30T02:07:50.614Z,31.23
2019-01-30T02:08:26.721Z,31.23
2019-01-30T02:09:03.891Z,31.23
2019-01-30T02:09:40.158Z,31.24
2019-01-30T02:10:18.221Z,31.23
2019-01-30T02:10:54.535Z,31.23
2019-01-30T02:11:30.534Z,31.25
2019-01-30T02:12:06.839Z,31.23
2019-01-30T02:12:43.131Z,31.23
2019-01-30T02:13:19.324Z,31.23
2019-01-30T02:13:55.454Z,31.22
2019-01-30T02:14:31.623Z,31.24
2019-01-30T02:15:09.686Z,31.21
2019-01-30T02:15:45.806Z,31.21
2019-01-30T02:16:21.808Z,31.20
2019-01-30T02:16:57.907Z,31.19
2019-01-30T02:17:33.943Z,31.22
2019-01-30T02:18:10.141Z,31.22
2019-01-30T02:18:46.204Z,31.24
2019-01-30T02:19:22.469Z,31.24
2019-01-30T02:19:58.601Z,31.26
2019-01-30T02:20:35.555Z,31.28
2019-01-30T02:21:11.585Z,31.31
2019-01-30T02:21:47.840Z,31.34
2019-01-30T02:22:23.969Z,31.35
2019-01-30T02:23:00.117Z,31.37
2019-01-30T02:23:36.365Z,31.39
2019-01-30T02:24:12.499Z,31.39
2019-01-30T02:24:48.577Z,31.42
2019-01-30T02:25:24.987Z,31.39
2019-01-30T02:26:01.297Z,31.44
2019-01-30T02:26:37.511Z,31.41
2019-01-30T02:27:14.822Z,31.37
2019-01-30T02:27:50.953Z,31.38
2019-01-30T02:28:27.106Z,31.39
2019-01-30T02:29:03.361Z,31.35
2019-01-30T02:29:39.563Z,31.40
2019-01-30T02:30:18.547Z,31.40
2019-01-30T02:30:54.657Z,31.42
2019-01-30T02:31:31.008Z,31.44
2019-01-30T02:32:07.074Z,31.49
2019-01-30T02:32:43.107Z,31.51
2019-01-30T02:33:19.234Z,31.52
2019-01-30T02:33:55.372Z,31.51
2019-01-30T02:34:31.553Z,31.53
2019-01-30T02:35:07.950Z,31.51
2019-01-30T02:35:44.084Z,31.51
2019-01-30T02:36:20.408Z,31.53
2019-01-30T02:36:59.918Z,31.55
2019-01-30T02:37:36.074Z,31.53
2019-01-30T02:38:12.146Z,31.53
2019-01-30T02:38:48.423Z,31.56
2019-01-30T02:39:24.718Z,31.56
2019-01-30T02:40:00.837Z,31.56
2019-01-30T02:40:36.783Z,31.57
2019-01-30T02:41:12.900Z,31.59
2019-01-30T02:41:49.000Z,31.56
2019-01-30T02:42:25.221Z,31.57
2019-01-30T02:43:01.487Z,31.57
2019-01-30T02:43:37.658Z,31.60
2019-01-30T02:44:13.818Z,31.62
2019-01-30T02:44:49.954Z,31.66
2019-01-30T02:45:27.163Z,31.63
2019-01-30T02:46:03.246Z,31.68
2019-01-30T02:46:39.418Z,31.72
2019-01-30T02:47:15.709Z,31.75
2019-01-30T02:47:51.799Z,31.76
2019-01-30T02:48:27.917Z,31.76
2019-01-30T02:49:04.072Z,31.76
2019-01-30T02:49:40.290Z,31.81
2019-01-30T02:50:18.168Z,31.84
2019-01-30T02:50:54.397Z,31.88
2019-01-30T02:51:30.590Z,31.93
2019-01-30T02:52:06.896Z,31.96
2019-01-30T02:52:42.968Z,31.97
2019-01-30T02:53:19.111Z,32.03
2019-01-30T02:53:55.349Z,32.04
2019-01-30T02:54:31.445Z,32.06
2019-01-30T02:55:09.066Z,32.10
2019-01-30T02:55:45.159Z,32.17
2019-01-30T02:56:21.205Z,32.26
2019-01-30T02:56:57.250Z,32.34
2019-01-30T02:57:33.273Z,32.43
2019-01-30T02:58:09.384Z,32.50
2019-01-30T02:58:45.570Z,32.53
2019-01-30T02:59:21.740Z,32.63
2019-01-30T02:59:58.058Z,32.72
2019-01-30T03:00:35.707Z,32.79
2019-01-30T03:01:11.862Z,32.86
2019-01-30T03:01:58.497Z,32.91
2019-01-30T03:02:34.826Z,32.98
2019-01-30T03:03:11.153Z,33.05
2019-01-30T03:03:47.359Z,33.08
2019-01-30T03:04:23.320Z,33.09
2019-01-30T03:04:59.539Z,33.03
2019-01-30T03:05:35.940Z,33.13
2019-01-30T03:06:12.109Z,33.22
2019-01-30T03:06:48.387Z,33.29
2019-01-30T03:07:24.561Z,33.38
2019-01-30T03:08:00.745Z,33.45
2019-01-30T03:08:36.902Z,33.52
2019-01-30T03:09:13.000Z,33.62
2019-01-30T03:09:49.166Z,33.63
2019-01-30T03:10:25.672Z,33.67
2019-01-30T03:11:01.827Z,33.68
2019-01-30T03:11:38.092Z,33.70
2019-01-30T03:12:14.175Z,33.66
2019-01-30T03:12:50.320Z,33.68
2019-01-30T03:13:26.484Z,33.70
2019-01-30T03:14:02.749Z,33.74
2019-01-30T03:14:38.916Z,33.83
2019-01-30T03:15:15.396Z,33.86
2019-01-30T03:15:51.468Z,33.94
2019-01-30T03:16:27.677Z,33.98
2019-01-30T03:17:04.085Z,33.95
2019-01-30T03:17:40.136Z,33.95
2019-01-30T03:18:16.124Z,33.99
2019-01-30T03:18:52.394Z,34.00
2019-01-30T03:19:28.601Z,33.97
2019-01-30T03:20:05.190Z,33.97
2019-01-30T03:20:41.318Z,33.95
2019-01-30T03:21:17.388Z,34.02
2019-01-30T03:21:53.525Z,34.08
2019-01-30T03:22:29.843Z,34.15
2019-01-30T03:23:06.105Z,34.20
2019-01-30T03:23:42.395Z,34.22
2019-01-30T03:24:18.475Z,34.19
2019-01-30T03:24:54.543Z,34.17
2019-01-30T03:25:30.653Z,34.17
2019-01-30T03:26:06.837Z,34.20
2019-01-30T03:26:42.862Z,34.20
2019-01-30T03:27:19.067Z,34.17
2019-01-30T03:27:55.218Z,34.15
2019-01-30T03:28:31.355Z,34.16
2019-01-30T03:29:07.371Z,34.18
2019-01-30T03:29:43.491Z,34.18
2019-01-30T03:30:30.638Z,34.20
2019-01-30T03:31:17.941Z,34.19
2019-01-30T03:31:46.722Z,34.13
2019-01-30T03:32:22.932Z,34.12
2019-01-30T03:32:59.229Z,34.13
2019-01-30T03:33:35.554Z,34.14
2019-01-30T03:34:11.761Z,34.15
2019-01-30T03:34:48.112Z,34.19
2019-01-30T03:35:24.212Z,34.19
2019-01-30T03:36:00.496Z,34.24
2019-01-30T03:36:36.669Z,34.26
2019-01-30T03:37:13.191Z,34.29
2019-01-30T03:37:49.304Z,34.31
2019-01-30T03:38:25.269Z,34.32
2019-01-30T03:39:01.231Z,34.33
2019-01-30T03:39:37.414Z,34.32
2019-01-30T03:40:17.012Z,34.37
2019-01-30T03:40:52.967Z,34.37
2019-01-30T03:41:29.094Z,34.38
2019-01-30T03:42:05.123Z,34.36
2019-01-30T03:42:41.343Z,34.39
2019-01-30T03:43:17.887Z,34.38
2019-01-30T03:43:53.997Z,34.34
2019-01-30T03:44:30.164Z,34.40
2019-01-30T03:45:07.480Z,34.44
2019-01-30T03:45:43.915Z,34.46
2019-01-30T03:46:20.069Z,34.49
2019-01-30T03:46:56.192Z,34.53
2019-01-30T03:47:32.493Z,34.57
2019-01-30T03:48:08.664Z,34.58
2019-01-30T03:48:44.753Z,34.58
2019-01-30T03:49:20.939Z,34.56
2019-01-30T03:49:57.142Z,34.53
2019-01-30T03:50:33.299Z,34.56
2019-01-30T03:51:09.486Z,34.56
2019-01-30T03:51:45.808Z,34.51
2019-01-30T03:52:21.981Z,34.52
2019-01-30T03:52:57.977Z,34.52
2019-01-30T03:53:34.140Z,34.53
2019-01-30T03:54:10.438Z,34.56
2019-01-30T03:54:46.845Z,34.56
2019-01-30T03:55:22.952Z,34.55
2019-01-30T03:55:59.051Z,34.56
2019-01-30T03:56:35.206Z,34.57
2019-01-30T03:57:11.435Z,34.59
2019-01-30T03:57:47.514Z,34.60
2019-01-30T03:58:23.772Z,34.59
2019-01-30T03:58:59.959Z,34.62
2019-01-30T03:59:36.210Z,34.63
2019-01-30T04:00:15.852Z,34.61
2019-01-30T04:00:51.952Z,34.58
2019-01-30T04:01:28.052Z,34.56
2019-01-30T04:02:04.149Z,34.53
2019-01-30T04:02:40.287Z,34.56
2019-01-30T04:03:16.348Z,34.59
2019-01-30T04:03:52.485Z,34.61
2019-01-30T04:04:28.616Z,34.62
2019-01-30T04:05:04.838Z,34.64
2019-01-30T04:05:40.974Z,34.64
2019-01-30T04:06:17.433Z,34.65
2019-01-30T04:06:53.360Z,34.69
2019-01-30T04:07:29.448Z,34.72
2019-01-30T04:08:05.550Z,34.73
2019-01-30T04:08:41.651Z,34.73
2019-01-30T04:09:17.828Z,34.71
2019-01-30T04:09:53.990Z,34.74
2019-01-30T04:10:30.069Z,34.74
2019-01-30T04:11:06.124Z,34.77
2019-01-30T04:11:42.416Z,34.80
2019-01-30T04:12:18.722Z,34.82
2019-01-30T04:12:55.042Z,34.83
2019-01-30T04:13:31.116Z,34.84
2019-01-30T04:14:07.163Z,34.82
2019-01-30T04:14:43.332Z,34.80
2019-01-30T04:15:19.862Z,34.81
2019-01-30T04:15:56.009Z,34.78
2019-01-30T04:16:32.151Z,34.80
2019-01-30T04:17:08.280Z,34.80
2019-01-30T04:17:44.682Z,34.82
2019-01-30T04:18:20.807Z,34.85
2019-01-30T04:18:57.029Z,34.85
2019-01-30T04:19:33.142Z,34.89
2019-01-30T04:20:10.590Z,34.85
2019-01-30T04:20:46.859Z,34.82
2019-01-30T04:21:23.038Z,34.78
2019-01-30T04:21:59.327Z,34.79
2019-01-30T04:22:35.500Z,34.80
2019-01-30T04:23:11.818Z,34.83
2019-01-30T04:23:47.965Z,34.77
2019-01-30T04:24:24.157Z,34.74
2019-01-30T04:25:00.284Z,34.76
2019-01-30T04:25:36.585Z,34.75
2019-01-30T04:26:12.699Z,34.74
2019-01-30T04:26:48.898Z,34.69
2019-01-30T04:27:25.105Z,34.68
2019-01-30T04:28:01.253Z,34.69
2019-01-30T04:28:37.449Z,34.73
2019-01-30T04:29:13.704Z,34.75
2019-01-30T04:29:49.802Z,34.78
2019-01-30T04:30:26.863Z,34.81
2019-01-30T04:31:03.069Z,34.77
2019-01-30T04:31:39.294Z,34.76
2019-01-30T04:32:15.446Z,34.77
2019-01-30T04:32:51.749Z,34.80
2019-01-30T04:33:27.960Z,34.80
2019-01-30T04:34:04.033Z,34.76
2019-01-30T04:34:40.130Z,34.79
2019-01-30T04:35:16.463Z,34.80
2019-01-30T04:35:52.543Z,34.77
2019-01-30T04:36:28.901Z,34.78
2019-01-30T04:37:04.897Z,34.77
2019-01-30T04:37:41.133Z,34.82
2019-01-30T04:38:17.194Z,34.84
2019-01-30T04:38:53.366Z,34.84
2019-01-30T04:39:29.540Z,34.85
2019-01-30T04:40:06.165Z,34.90
2019-01-30T04:40:42.309Z,34.91
2019-01-30T04:41:18.600Z,34.94
2019-01-30T04:41:54.684Z,34.97
2019-01-30T04:42:30.785Z,34.98
2019-01-30T04:43:07.000Z,35.03
2019-01-30T04:43:43.165Z,34.99
2019-01-30T04:44:19.485Z,35.01
2019-01-30T04:44:55.686Z,34.98
2019-01-30T04:45:31.860Z,35.04
2019-01-30T04:46:08.334Z,35.04
2019-01-30T04:46:44.469Z,35.00
2019-01-30T04:47:20.705Z,35.02
2019-01-30T04:47:56.807Z,34.99
2019-01-30T04:48:32.883Z,34.91
2019-01-30T04:49:09.138Z,34.88
2019-01-30T04:49:45.165Z,34.92
2019-01-30T04:50:21.442Z,34.89
2019-01-30T04:50:57.707Z,34.90
2019-01-30T04:51:34.011Z,34.92
2019-01-30T04:52:10.339Z,34.94
2019-01-30T04:52:46.415Z,34.93
2019-01-30T04:53:22.523Z,34.93
2019-01-30T04:53:58.570Z,34.98
2019-01-30T04:54:34.635Z,34.99
2019-01-30T04:55:10.940Z,35.04
2019-01-30T04:55:47.173Z,35.06
2019-01-30T04:56:23.355Z,35.07
2019-01-30T04:56:59.484Z,35.12
2019-01-30T04:57:35.634Z,35.13
2019-01-30T04:58:11.891Z,35.15
2019-01-30T04:58:48.163Z,35.11
2019-01-30T04:59:24.183Z,35.15
2019-01-30T05:00:00.343Z,35.15
2019-01-30T05:00:36.391Z,35.17
2019-01-30T05:01:12.542Z,35.17
2019-01-30T05:01:49.793Z,35.15
2019-01-30T05:02:26.256Z,35.16
2019-01-30T05:03:02.423Z,35.15
2019-01-30T05:03:38.692Z,35.18
2019-01-30T05:04:14.801Z,35.15
2019-01-30T05:04:51.071Z,35.15
2019-01-30T05:05:27.250Z,35.18
2019-01-30T05:06:03.434Z,35.18
2019-01-30T05:06:39.459Z,35.19
2019-01-30T05:07:15.508Z,35.20
2019-01-30T05:07:51.604Z,35.19
2019-01-30T05:08:27.793Z,35.22
2019-01-30T05:09:05.066Z,35.23
2019-01-30T05:09:41.296Z,35.23
2019-01-30T05:10:17.505Z,35.22
2019-01-30T05:10:53.761Z,35.26
2019-01-30T05:11:29.949Z,35.30
2019-01-30T05:12:06.177Z,35.21
2019-01-30T05:12:42.449Z,35.22
2019-01-30T05:13:18.497Z,35.21
2019-01-30T05:13:54.577Z,35.25
2019-01-30T05:14:30.661Z,35.22
2019-01-30T05:15:08.022Z,35.15
2019-01-30T05:15:44.314Z,35.14
2019-01-30T05:16:20.515Z,35.15
2019-01-30T05:16:56.658Z,35.13
2019-01-30T05:17:32.859Z,35.18
2019-01-30T05:18:09.165Z,35.20
2019-01-30T05:18:45.269Z,35.19
2019-01-30T05:19:21.473Z,35.20
2019-01-30T05:19:57.714Z,35.16
2019-01-30T05:20:34.001Z,35.17
2019-01-30T05:21:10.231Z,35.11
2019-01-30T05:21:46.272Z,35.12
2019-01-30T05:22:22.463Z,35.13
2019-01-30T05:22:58.587Z,35.12
2019-01-30T05:23:34.691Z,35.15
2019-01-30T05:24:10.875Z,35.18
2019-01-30T05:24:47.192Z,35.18
2019-01-30T05:25:23.242Z,35.20
2019-01-30T05:26:00.080Z,35.22
2019-01-30T05:26:36.281Z,35.25
2019-01-30T05:27:12.364Z,35.26
2019-01-30T05:27:48.543Z,35.30
2019-01-30T05:28:24.800Z,35.33
2019-01-30T05:29:00.830Z,35.38
2019-01-30T05:29:36.948Z,35.43
2019-01-30T05:30:27.419Z,35.46
2019-01-30T05:31:03.441Z,35.44
2019-01-30T05:31:39.423Z,35.43
2019-01-30T05:32:15.696Z,35.44
2019-01-30T05:32:52.223Z,35.45
2019-01-30T05:33:28.316Z,35.46
2019-01-30T05:34:04.555Z,35.46
2019-01-30T05:34:40.693Z,35.49
2019-01-30T05:35:17.018Z,35.49
2019-01-30T05:35:53.294Z,35.52
2019-01-30T05:36:29.340Z,35.51
2019-01-30T05:37:05.358Z,35.54
2019-01-30T05:37:41.570Z,35.55
2019-01-30T05:38:17.652Z,35.57
2019-01-30T05:38:54.091Z,35.59
2019-01-30T05:39:30.194Z,35.52
2019-01-30T05:40:07.361Z,35.47
2019-01-30T05:40:43.465Z,35.45
2019-01-30T05:41:19.650Z,35.44
2019-01-30T05:41:55.867Z,35.42
2019-01-30T05:42:32.150Z,35.40
2019-01-30T05:43:08.197Z,35.40
2019-01-30T05:43:44.390Z,35.44
2019-01-30T05:44:20.468Z,35.41
2019-01-30T05:44:56.692Z,35.43
2019-01-30T05:45:32.990Z,35.44
2019-01-30T05:46:09.166Z,35.45
2019-01-30T05:46:45.920Z,35.41
2019-01-30T05:47:22.189Z,35.38
2019-01-30T05:47:58.351Z,35.34
2019-01-30T05:48:34.602Z,35.32
2019-01-30T05:49:10.824Z,35.32
2019-01-30T05:49:47.175Z,35.30
2019-01-30T05:50:23.417Z,35.30
2019-01-30T05:50:59.575Z,35.29
2019-01-30T05:51:35.749Z,35.27
2019-01-30T05:52:11.917Z,35.28
2019-01-30T05:52:48.148Z,35.29
2019-01-30T05:53:24.349Z,35.29
2019-01-30T05:54:00.498Z,35.32
2019-01-30T05:54:36.633Z,35.27
2019-01-30T05:55:13.714Z,35.30
2019-01-30T05:55:49.912Z,35.27
2019-01-30T05:56:26.029Z,35.34
2019-01-30T05:57:02.080Z,35.38
2019-01-30T05:57:38.171Z,35.40
2019-01-30T05:58:14.491Z,35.41
2019-01-30T05:58:50.804Z,35.45
2019-01-30T05:59:26.936Z,35.47
2019-01-30T06:00:03.186Z,35.49
2019-01-30T06:00:42.323Z,35.49
2019-01-30T06:01:18.553Z,35.46
2019-01-30T06:01:54.831Z,35.49
2019-01-30T06:02:30.957Z,35.53
2019-01-30T06:03:07.054Z,35.52
2019-01-30T06:03:43.270Z,35.52
2019-01-30T06:04:19.513Z,35.53
2019-01-30T06:04:55.748Z,35.55
2019-01-30T06:05:32.094Z,35.56
2019-01-30T06:06:08.163Z,35.57
2019-01-30T06:06:44.288Z,35.56
2019-01-30T06:07:20.472Z,35.58
2019-01-30T06:07:56.653Z,35.58
2019-01-30T06:08:33.018Z,35.62
2019-01-30T06:09:10.027Z,35.62
2019-01-30T06:09:46.127Z,35.65
2019-01-30T06:10:22.404Z,35.68
2019-01-30T06:10:58.483Z,35.71
2019-01-30T06:11:34.643Z,35.73
2019-01-30T06:12:10.914Z,35.74
2019-01-30T06:12:47.116Z,35.76
2019-01-30T06:13:23.193Z,35.75
2019-01-30T06:13:59.341Z,35.77
2019-01-30T06:14:35.612Z,35.78
2019-01-30T06:15:12.423Z,35.77
2019-01-30T06:15:48.658Z,35.77
2019-01-30T06:16:24.664Z,35.77
2019-01-30T06:17:00.745Z,35.75
2019-01-30T06:17:36.818Z,35.72
2019-01-30T06:18:12.920Z,35.66
2019-01-30T06:18:49.009Z,35.69
2019-01-30T06:19:25.124Z,35.67
2019-01-30T06:20:01.449Z,35.71
2019-01-30T06:20:37.606Z,35.74
2019-01-30T06:21:13.819Z,35.75
2019-01-30T06:21:49.982Z,35.76
2019-01-30T06:22:26.184Z,35.77
2019-01-30T06:23:02.277Z,35.79
2019-01-30T06:23:38.408Z,35.82
2019-01-30T06:24:14.528Z,35.85
2019-01-30T06:24:50.581Z,35.86
2019-01-30T06:25:27.061Z,35.88
2019-01-30T06:26:03.184Z,35.90
2019-01-30T06:26:39.228Z,35.88
2019-01-30T06:27:15.464Z,35.90
2019-01-30T06:27:51.747Z,35.90
2019-01-30T06:28:29.362Z,35.89
2019-01-30T06:29:05.614Z,35.89
2019-01-30T06:29:41.794Z,35.86
2019-01-30T06:30:18.950Z,35.87
2019-01-30T06:30:55.278Z,35.86
2019-01-30T06:31:31.409Z,35.84
2019-01-30T06:32:06.569Z,35.84
2019-01-30T06:32:42.942Z,35.84
2019-01-30T06:33:19.202Z,35.82
2019-01-30T06:33:55.593Z,35.79
2019-01-30T06:34:31.876Z,35.81
2019-01-30T06:35:08.181Z,35.84
2019-01-30T06:35:44.424Z,35.87
2019-01-30T06:36:20.554Z,35.86
2019-01-30T06:36:56.520Z,35.87
2019-01-30T06:37:32.588Z,35.88
2019-01-30T06:38:09.270Z,35.85
2019-01-30T06:38:45.399Z,35.84
2019-01-30T06:39:21.600Z,35.87
2019-01-30T06:39:57.786Z,35.85
2019-01-30T06:40:35.191Z,35.81
2019-01-30T06:41:11.398Z,35.79
2019-01-30T06:41:47.699Z,35.73
2019-01-30T06:42:23.807Z,35.76
2019-01-30T06:43:02.426Z,35.73
2019-01-30T06:43:37.962Z,35.72
2019-01-30T06:44:14.097Z,35.73
2019-01-30T06:44:50.297Z,35.73
2019-01-30T06:45:26.544Z,35.71
2019-01-30T06:46:02.717Z,35.71
2019-01-30T06:46:38.859Z,35.69
2019-01-30T06:47:15.305Z,35.71
2019-01-30T06:47:51.306Z,35.68
2019-01-30T06:48:27.421Z,35.66
2019-01-30T06:49:03.572Z,35.68
2019-01-30T06:49:39.687Z,35.66
2019-01-30T06:50:15.957Z,35.64
2019-01-30T06:50:52.144Z,35.66
2019-01-30T06:51:28.179Z,35.68
2019-01-30T06:52:04.380Z,35.69
2019-01-30T06:52:40.670Z,35.71
2019-01-30T06:53:16.716Z,35.72
2019-01-30T06:53:53.042Z,35.71
2019-01-30T06:54:29.144Z,35.72
2019-01-30T06:55:05.243Z,35.73
2019-01-30T06:55:41.392Z,35.73
2019-01-30T06:56:17.636Z,35.72
2019-01-30T06:56:53.950Z,35.74
2019-01-30T06:57:30.256Z,35.74
2019-01-30T06:58:06.404Z,35.75
2019-01-30T06:58:42.707Z,35.75
2019-01-30T06:59:18.761Z,35.76
2019-01-30T06:59:55.047Z,35.75
2019-01-30T07:00:31.377Z,35.76
2019-01-30T07:01:07.502Z,35.77
2019-01-30T07:01:43.685Z,35.80
2019-01-30T07:02:19.772Z,35.77
2019-01-30T07:02:56.289Z,35.77
2019-01-30T07:03:32.448Z,35.77
2019-01-30T07:04:08.673Z,35.74
2019-01-30T07:04:44.848Z,35.72
2019-01-30T07:05:21.085Z,35.74
2019-01-30T07:05:57.378Z,35.75
2019-01-30T07:06:33.695Z,35.76
2019-01-30T07:07:09.811Z,35.76
2019-01-30T07:07:45.890Z,35.77
2019-01-30T07:08:22.164Z,35.76
2019-01-30T07:08:58.310Z,35.73
2019-01-30T07:09:34.511Z,35.74
2019-01-30T07:10:18.941Z,35.75
2019-01-30T07:10:55.139Z,35.75
2019-01-30T07:11:31.338Z,35.77
2019-01-30T07:12:10.347Z,35.76
2019-01-30T07:12:46.864Z,35.75
2019-01-30T07:13:24.185Z,35.74
2019-01-30T07:14:00.416Z,35.71
2019-01-30T07:14:36.482Z,35.69
2019-01-30T07:15:12.659Z,35.65
2019-01-30T07:15:48.807Z,35.63
2019-01-30T07:16:24.888Z,35.64
2019-01-30T07:17:00.950Z,35.63
2019-01-30T07:17:36.974Z,35.63
2019-01-30T07:18:13.159Z,35.63
2019-01-30T07:18:49.123Z,35.63
2019-01-30T07:19:25.261Z,35.65
2019-01-30T07:20:01.534Z,35.65
2019-01-30T07:20:37.713Z,35.64
2019-01-30T07:21:13.719Z,35.64
2019-01-30T07:21:50.020Z,35.63
2019-01-30T07:22:26.182Z,35.63
2019-01-30T07:23:02.458Z,35.64
2019-01-30T07:23:38.428Z,35.63
2019-01-30T07:24:14.625Z,35.62
2019-01-30T07:24:50.734Z,35.62
2019-01-30T07:25:26.823Z,35.55
2019-01-30T07:26:03.120Z,35.52
2019-01-30T07:26:39.215Z,35.46
2019-01-30T07:27:15.715Z,35.45
2019-01-30T07:27:51.833Z,35.43
2019-01-30T07:28:27.913Z,35.41
2019-01-30T07:29:04.012Z,35.41
2019-01-30T07:29:40.320Z,35.40
2019-01-30T07:30:30.813Z,35.39
2019-01-30T07:31:07.118Z,35.36
2019-01-30T07:31:43.281Z,35.32
2019-01-30T07:32:19.524Z,35.32
2019-01-30T07:32:55.703Z,35.32
2019-01-30T07:33:31.975Z,35.31
2019-01-30T07:34:08.177Z,35.31
2019-01-30T07:34:44.297Z,35.30
2019-01-30T07:35:20.412Z,35.33
2019-01-30T07:35:56.511Z,35.33
2019-01-30T07:36:32.625Z,35.34
2019-01-30T07:37:08.772Z,35.32
2019-01-30T07:37:44.938Z,35.32
2019-01-30T07:38:21.285Z,35.30
2019-01-30T07:38:57.414Z,35.33
2019-01-30T07:39:33.463Z,35.33
2019-01-30T07:40:10.318Z,35.31
2019-01-30T07:40:46.558Z,35.30
2019-01-30T07:41:22.797Z,35.30
2019-01-30T07:41:58.880Z,35.28
2019-01-30T07:42:34.959Z,35.26
2019-01-30T07:43:11.064Z,35.24
2019-01-30T07:43:47.066Z,35.25
2019-01-30T07:44:23.131Z,35.26
2019-01-30T07:44:59.337Z,35.29
2019-01-30T07:45:35.451Z,35.30
2019-01-30T07:46:11.534Z,35.31
2019-01-30T07:46:47.647Z,35.32
2019-01-30T07:47:23.854Z,35.32
2019-01-30T07:47:59.932Z,35.32